Time;durP1;ratioP1;P1;durP2;ratioP2;P2;SDS_P1;SDS_P2;PMS_P1;PMS_P2;Temp;Humidity;BMP_temperature;BMP_pressure;BME280_temperature;BME280_humidity;BME280_pressure;Samples;Min_cycle;Max_cycle;Signal;HPM_P1;HPM_P2
2023/12/05 00:02:27;;;;;;;14.35;6.35;;;;;;;-0.21;100.00;100187.00;6278599;28;20044;-67
2023/12/05 00:05:28;;;;;;;17.88;7.35;;;;;;;-0.24;100.00;100181.03;6278267;28;20461;-68
2023/12/05 00:08:30;;;;;;;16.33;7.03;;;;;;;-0.17;100.00;100182.66;6277974;28;20124;-69
2023/12/05 00:11:31;;;;;;;15.88;7.22;;;;;;;-0.13;100.00;100161.06;6277969;28;20467;-68
2023/12/05 00:14:34;;;;;;;17.65;7.00;;;;;;;-0.13;100.00;100168.78;6277706;28;20052;-68
2023/12/05 00:17:35;;;;;;;17.00;7.45;;;;;;;-0.19;100.00;100166.31;6278205;28;20045;-68
2023/12/05 00:20:36;;;;;;;18.58;7.65;;;;;;;-0.09;100.00;100165.25;6277832;28;20049;-68
2023/12/05 00:23:38;;;;;;;13.05;6.45;;;;;;;-0.11;100.00;100160.13;6277438;28;20056;-68
2023/12/05 00:26:39;;;;;;;18.55;7.57;;;;;;;-0.02;100.00;100161.69;6277133;28;20052;-68
2023/12/05 00:29:41;;;;;;;23.30;7.40;;;;;;;-0.06;100.00;100160.88;6277615;28;20446;-68
2023/12/05 00:32:43;;;;;;;17.50;6.80;;;;;;;-0.05;100.00;100154.81;6277352;28;20045;-68
2023/12/05 00:35:44;;;;;;;17.98;7.18;;;;;;;-0.08;100.00;100154.06;6277575;28;20052;-68
2023/12/05 00:38:45;;;;;;;12.80;5.65;;;;;;;-0.10;100.00;100154.06;6277742;28;20470;-69
2023/12/05 00:41:47;;;;;;;17.75;7.57;;;;;;;-0.08;100.00;100149.75;6277225;28;20045;-67
2023/12/05 00:44:50;;;;;;;17.92;7.13;;;;;;;-0.18;100.00;100143.06;6277230;28;20061;-68
2023/12/05 00:47:51;;;;;;;16.95;6.93;;;;;;;-0.12;100.00;100145.53;6277119;28;20056;-66
2023/12/05 00:50:53;;;;;;;15.77;6.80;;;;;;;-0.16;100.00;100146.44;6277602;28;20053;-69
2023/12/05 00:53:54;;;;;;;16.13;6.82;;;;;;;-0.19;100.00;100145.66;6277222;28;20045;-67
2023/12/05 00:56:56;;;;;;;17.02;7.85;;;;;;;-0.10;100.00;100135.16;6277253;28;20044;-67
2023/12/05 00:59:58;;;;;;;15.95;7.47;;;;;;;-0.15;100.00;100142.97;6277113;28;20045;-68
2023/12/05 01:02:59;;;;;;;19.02;7.57;;;;;;;-0.12;100.00;100135.19;6276612;28;20052;-67
2023/12/05 01:06:01;;;;;;;14.55;7.05;;;;;;;-0.15;100.00;100135.25;6276464;28;20053;-67
2023/12/05 01:09:03;;;;;;;15.35;6.90;;;;;;;-0.08;100.00;100141.16;6276951;28;20049;-67
2023/12/05 01:12:05;;;;;;;13.85;6.40;;;;;;;-0.06;100.00;100141.97;6276728;28;20049;-67
2023/12/05 01:15:09;;;;;;;18.73;7.45;;;;;;;-0.08;100.00;100146.31;6276554;28;20441;-68
2023/12/05 01:18:12;;;;;;;19.40;6.90;;;;;;;-0.05;100.00;100139.34;6276694;28;20053;-68
2023/12/05 01:21:13;;;;;;;15.82;7.80;;;;;;;-0.14;100.00;100142.09;6276338;28;20076;-68
2023/12/05 01:24:14;;;;;;;21.35;7.68;;;;;;;-0.03;100.00;100139.31;6276625;28;20045;-68
2023/12/05 01:27:16;;;;;;;19.27;8.30;;;;;;;-0.11;100.00;100130.88;6276429;28;20045;-68
2023/12/05 01:30:19;;;;;;;21.25;7.68;;;;;;;-0.14;100.00;100126.59;6276320;28;20430;-67
2023/12/05 01:33:20;;;;;;;20.05;7.15;;;;;;;-0.14;100.00;100121.44;6275933;28;20053;-67
2023/12/05 01:36:22;;;;;;;14.25;8.20;;;;;;;-0.07;100.00;100133.38;6276136;28;20053;-69
2023/12/05 01:39:23;;;;;;;15.18;7.30;;;;;;;-0.10;100.00;100127.41;6276255;28;20172;-68
2023/12/05 01:42:25;;;;;;;17.23;8.70;;;;;;;-0.08;100.00;100126.50;6276469;28;20053;-68
2023/12/05 01:45:27;;;;;;;22.65;8.32;;;;;;;-0.19;100.00;100132.75;6277272;28;20049;-68
2023/12/05 01:48:31;;;;;;;19.73;7.85;;;;;;;-0.13;100.00;100122.31;6276124;28;20072;-68
2023/12/05 01:51:33;;;;;;;20.95;7.80;;;;;;;-0.17;100.00;100123.25;6275867;28;20056;-68
2023/12/05 01:54:34;;;;;;;18.80;7.90;;;;;;;-0.17;100.00;100121.53;6275583;28;20437;-68
2023/12/05 01:57:36;;;;;;;19.58;8.57;;;;;;;-0.21;100.00;100112.13;6275875;28;20060;-68
2023/12/05 02:00:39;;;;;;;19.83;8.00;;;;;;;-0.17;100.00;100112.94;6275829;28;20052;-68
2023/12/05 02:03:41;;;;;;;22.20;8.88;;;;;;;-0.17;100.00;100108.59;6275652;28;20140;-68
2023/12/05 02:06:42;;;;;;;17.63;8.85;;;;;;;-0.06;100.00;100104.06;6275281;28;20064;-68
2023/12/05 02:09:44;;;;;;;22.20;8.68;;;;;;;-0.10;100.00;100109.31;6275435;28;20071;-68
2023/12/05 02:12:46;;;;;;;20.38;8.60;;;;;;;-0.03;100.00;100110.91;6275536;28;20048;-67
2023/12/05 02:15:55;;;;;;;19.27;8.60;;;;;;;-0.02;100.00;100099.69;6275243;28;20051;-67
2023/12/05 02:19:05;;;;;;;17.92;8.55;;;;;;;-0.08;100.00;100097.25;6274892;28;20049;-68
2023/12/05 02:22:12;;;;;;;16.45;8.27;;;;;;;-0.13;100.00;100092.19;6275154;28;20060;-68
2023/12/05 02:25:22;;;;;;;25.65;9.70;;;;;;;-0.04;100.00;100101.47;6274631;28;20053;-68
2023/12/05 02:28:25;;;;;;;18.52;8.13;;;;;;;-0.09;100.00;100096.41;6275072;28;20466;-70
2023/12/05 02:31:26;;;;;;;23.50;9.05;;;;;;;-0.12;100.00;100093.03;6275532;28;20049;-67
2023/12/05 02:34:28;;;;;;;25.58;8.77;;;;;;;-0.10;100.00;100081.75;6275293;28;20140;-68
2023/12/05 02:37:39;;;;;;;23.38;9.10;;;;;;;-0.09;100.00;100088.66;6274883;28;20044;-70
2023/12/05 02:40:51;;;;;;;24.45;8.68;;;;;;;-0.08;100.00;100086.91;6274888;28;20442;-69
2023/12/05 02:44:07;;;;;;;25.67;9.20;;;;;;;-0.05;100.00;100084.25;6274938;28;20079;-69
2023/12/05 02:47:09;;;;;;;24.05;9.35;;;;;;;-0.05;100.00;100076.50;6275181;28;20135;-68
2023/12/05 02:50:10;;;;;;;26.10;9.05;;;;;;;-0.08;100.00;100067.09;6274685;28;20056;-69
2023/12/05 02:53:12;;;;;;;19.88;8.98;;;;;;;-0.12;100.00;100075.78;6275013;28;20049;-68
2023/12/05 02:56:13;;;;;;;28.65;10.57;;;;;;;-0.17;100.00;100077.63;6275023;28;20052;-69
2023/12/05 02:59:16;;;;;;;23.77;9.10;;;;;;;-0.10;100.00;100063.69;6274926;28;20430;-70
2023/12/05 03:02:17;;;;;;;21.38;8.82;;;;;;;-0.03;100.00;100070.44;6274989;28;20060;-68
2023/12/05 03:05:18;;;;;;;21.75;8.95;;;;;;;0.01;100.00;100070.38;6274598;28;20608;-68
2023/12/05 03:08:20;;;;;;;23.17;9.60;;;;;;;0.02;100.00;100067.75;6274835;28;20080;-69
2023/12/05 03:11:21;;;;;;;22.40;9.45;;;;;;;0.05;100.00;100066.84;6273407;28;20060;-68
2023/12/05 03:14:24;;;;;;;25.33;8.77;;;;;;;0.01;100.00;100072.97;6274447;28;20360;-68
2023/12/05 03:17:25;;;;;;;24.75;10.05;;;;;;;-0.05;100.00;100068.75;6274718;28;20060;-68
2023/12/05 03:20:26;;;;;;;24.27;9.60;;;;;;;-0.04;100.00;100063.59;6274325;28;20445;-69
2023/12/05 03:23:28;;;;;;;20.20;9.45;;;;;;;0.02;100.00;100056.59;6273511;28;20045;-68
2023/12/05 03:26:29;;;;;;;17.35;8.75;;;;;;;0.06;100.00;100071.13;6273628;28;20053;-68
2023/12/05 03:29:32;;;;;;;17.50;8.00;;;;;;;0.01;100.00;100065.22;6275647;28;20052;-69
2023/12/05 03:32:33;;;;;;;20.25;8.93;;;;;;;-0.07;100.00;100068.78;6279149;28;20055;-69
2023/12/05 03:35:35;;;;;;;30.92;10.75;;;;;;;-0.05;100.00;100064.44;6278574;28;20349;-68
2023/12/05 03:38:37;;;;;;;23.48;9.77;;;;;;;-0.05;100.00;100059.28;6254263;28;20049;-68
2023/12/05 03:41:39;;;;;;;27.25;11.20;;;;;;;-0.08;100.00;100061.09;6275241;28;20049;-69
2023/12/05 03:44:41;;;;;;;24.10;8.65;;;;;;;-0.01;100.00;100058.31;6278978;28;20060;-68
2023/12/05 03:47:43;;;;;;;23.15;10.00;;;;;;;-0.01;100.00;100049.72;6278220;28;20049;-68
2023/12/05 03:50:44;;;;;;;23.00;10.43;;;;;;;0.00;100.00;100059.22;6272811;28;20046;-68
2023/12/05 03:53:45;;;;;;;20.27;9.30;;;;;;;-0.04;100.00;100060.16;6265703;28;20430;-69
2023/12/05 03:56:47;;;;;;;23.23;10.57;;;;;;;-0.04;100.00;100057.56;6264589;28;20059;-69
2023/12/05 03:59:49;;;;;;;20.05;9.65;;;;;;;-0.05;100.00;100058.44;6278441;28;20052;-68
2023/12/05 04:02:51;;;;;;;20.25;8.55;;;;;;;-0.04;100.00;100052.41;6278365;28;20065;-68
2023/12/05 04:05:52;;;;;;;27.58;11.00;;;;;;;-0.07;100.00;100047.28;6269107;28;20049;-69
2023/12/05 04:08:53;;;;;;;24.50;8.68;;;;;;;-0.01;100.00;100047.16;6269707;28;20041;-69
2023/12/05 04:11:55;;;;;;;21.65;9.82;;;;;;;-0.01;100.00;100048.00;6265063;28;20061;-69
2023/12/05 04:14:57;;;;;;;24.23;10.23;;;;;;;0.07;100.00;100053.00;6269363;28;20058;-69
2023/12/05 04:17:59;;;;;;;23.92;10.73;;;;;;;0.02;100.00;100048.84;6272458;28;20062;-70
2023/12/05 04:21:00;;;;;;;25.40;10.25;;;;;;;0.01;100.00;100053.16;6266277;28;20053;-70
2023/12/05 04:24:02;;;;;;;25.70;9.88;;;;;;;-0.05;100.00;100053.25;6265353;28;20541;-69
2023/12/05 04:27:03;;;;;;;29.45;10.30;;;;;;;-0.05;100.00;100053.25;6270638;28;20041;-70
2023/12/05 04:30:07;;;;;;;26.17;9.10;;;;;;;-0.07;100.00;100044.72;6267096;28;20045;-70
2023/12/05 04:33:09;;;;;;;29.10;10.02;;;;;;;-0.12;100.00;100047.38;6265685;28;20462;-70
2023/12/05 04:36:11;;;;;;;25.80;10.13;;;;;;;-0.05;100.00;100048.09;6269109;28;20041;-70
2023/12/05 04:39:13;;;;;;;30.60;10.07;;;;;;;-0.07;100.00;100042.97;6266462;28;20456;-70
2023/12/05 04:42:14;;;;;;;23.40;9.95;;;;;;;-0.02;100.00;100042.88;6271349;28;20056;-70
2023/12/05 04:45:17;;;;;;;27.52;10.35;;;;;;;-0.02;100.00;100038.56;6277107;28;20048;-70
2023/12/05 04:48:18;;;;;;;32.67;11.13;;;;;;;-0.04;100.00;100042.91;6277326;28;20461;-70
2023/12/05 04:51:20;;;;;;;23.45;9.82;;;;;;;-0.01;100.00;100039.41;6277349;28;20484;-70
2023/12/05 04:54:21;;;;;;;24.50;11.43;;;;;;;-0.01;100.00;100040.25;6277092;28;20055;-70
2023/12/05 04:57:23;;;;;;;19.95;10.10;;;;;;;-0.01;100.00;100036.81;6277613;28;20433;-70
2023/12/05 05:00:25;;;;;;;20.95;10.18;;;;;;;0.01;100.00;100039.38;6277060;28;20048;-70
2023/12/05 05:03:27;;;;;;;22.40;9.77;;;;;;;-0.04;100.00;100042.91;6276713;28;20045;-70
2023/12/05 05:06:28;;;;;;;25.25;10.60;;;;;;;0.02;100.00;100038.50;6276866;28;20056;-70
2023/12/05 05:09:29;;;;;;;29.63;10.75;;;;;;;0.02;100.00;100041.09;6276730;28;20048;-70
2023/12/05 05:12:31;;;;;;;19.27;9.25;;;;;;;-0.08;100.00;100036.13;6276694;28;20053;-70
2023/12/05 05:15:33;;;;;;;23.77;9.27;;;;;;;-0.03;100.00;100038.59;6276596;28;20056;-70
2023/12/05 05:18:35;;;;;;;21.35;10.27;;;;;;;0.02;100.00;100046.25;6276835;28;20048;-70
2023/12/05 05:21:37;;;;;;;22.90;10.02;;;;;;;0.02;100.00;100041.09;6276385;28;20065;-70
2023/12/05 05:24:38;;;;;;;24.80;10.48;;;;;;;0.00;100.00;100038.53;6276612;28;20048;-70
2023/12/05 05:27:40;;;;;;;25.92;10.75;;;;;;;-0.07;100.00;100037.81;6276598;28;20061;-69
2023/12/05 05:30:42;;;;;;;23.52;10.25;;;;;;;-0.07;100.00;100039.53;6276197;28;20080;-70
2023/12/05 05:33:44;;;;;;;25.90;9.85;;;;;;;-0.09;100.00;100042.16;6276262;28;20052;-69
2023/12/05 05:36:46;;;;;;;31.48;10.98;;;;;;;-0.11;100.00;100045.66;6276221;28;20052;-70
2023/12/05 05:39:47;;;;;;;19.35;9.63;;;;;;;-0.08;100.00;100043.88;6276399;28;20045;-70
2023/12/05 05:42:49;;;;;;;26.60;11.00;;;;;;;-0.16;100.00;100047.50;6275886;28;20048;-70
2023/12/05 05:45:51;;;;;;;30.42;11.65;;;;;;;-0.19;100.00;100044.97;6275884;28;20057;-72
2023/12/05 05:48:53;;;;;;;20.73;9.18;;;;;;;-0.11;100.00;100033.59;6276232;28;20429;-70
2023/12/05 05:51:54;;;;;;;23.58;9.50;;;;;;;-0.06;100.00;100041.25;6275838;28;20365;-69
2023/12/05 05:54:55;;;;;;;24.98;10.43;;;;;;;-0.08;100.00;100040.44;6276178;28;20053;-70
2023/12/05 05:57:57;;;;;;;19.00;9.55;;;;;;;-0.21;100.00;100034.66;6268588;28;20441;-69
2023/12/05 06:00:59;;;;;;;25.55;10.90;;;;;;;-0.15;100.00;100046.59;6267029;28;20041;-70
2023/12/05 06:04:02;;;;;;;25.00;9.75;;;;;;;-0.09;100.00;100041.28;6266212;28;20041;-70
2023/12/05 06:07:04;;;;;;;26.33;11.27;;;;;;;-0.14;100.00;100035.38;6263068;28;20072;-69
2023/12/05 06:10:06;;;;;;;25.67;10.27;;;;;;;-0.11;100.00;100043.91;6262299;28;20042;-69
2023/12/05 06:13:07;;;;;;;30.70;11.00;;;;;;;-0.13;100.00;100045.69;6262342;28;20049;-70
2023/12/05 06:16:11;;;;;;;35.92;11.15;;;;;;;-0.15;100.00;100044.00;6262580;28;20342;-69
2023/12/05 06:19:12;;;;;;;24.83;10.98;;;;;;;-0.26;100.00;100036.50;6261860;28;20060;-69
2023/12/05 06:22:13;;;;;;;26.20;11.45;;;;;;;-0.26;100.00;100039.09;6270189;28;20041;-69
2023/12/05 06:25:15;;;;;;;23.83;10.43;;;;;;;-0.22;100.00;100045.88;6265699;28;20045;-69
2023/12/05 06:28:16;;;;;;;23.08;9.93;;;;;;;-0.21;100.00;100047.56;6268816;28;20053;-69
2023/12/05 06:31:19;;;;;;;34.05;11.45;;;;;;;-0.18;100.00;100052.69;6263388;28;20068;-69
2023/12/05 06:34:20;;;;;;;30.27;10.07;;;;;;;-0.22;100.00;100051.06;6262851;28;20071;-70
2023/12/05 06:37:22;;;;;;;26.02;11.68;;;;;;;-0.30;100.00;100063.25;6261267;28;20046;-69
2023/12/05 06:40:23;;;;;;;33.25;11.07;;;;;;;-0.27;100.00;100051.16;6260968;28;20389;-69
2023/12/05 06:43:25;;;;;;;26.45;11.70;;;;;;;-0.18;100.00;100050.13;6268933;28;20048;-70
2023/12/05 06:46:27;;;;;;;27.88;11.75;;;;;;;-0.20;100.00;100046.69;6264890;28;20076;-69
2023/12/05 06:49:29;;;;;;;26.05;9.82;;;;;;;-0.15;100.00;100041.44;6250212;28;20054;-69
2023/12/05 06:52:30;;;;;;;31.35;12.63;;;;;;;-0.15;100.00;100044.00;6250440;28;20054;-69
2023/12/05 06:55:31;;;;;;;28.27;11.70;;;;;;;-0.13;100.00;100045.69;6250090;28;20049;-69
2023/12/05 06:58:33;;;;;;;30.05;11.73;;;;;;;-0.17;100.00;100044.06;6251374;28;20064;-69
2023/12/05 07:01:36;;;;;;;29.70;11.50;;;;;;;-0.18;100.00;100051.81;6263518;28;20037;-69
2023/12/05 07:04:37;;;;;;;30.65;12.35;;;;;;;-0.19;100.00;100043.22;6266655;28;20045;-69
2023/12/05 07:07:39;;;;;;;30.92;12.32;;;;;;;-0.14;100.00;100054.31;6260064;28;20052;-69
2023/12/05 07:10:40;;;;;;;27.48;11.13;;;;;;;-0.19;100.00;100050.13;6255032;28;20050;-69
2023/12/05 07:13:41;;;;;;;28.48;11.45;;;;;;;-0.17;100.00;100049.22;6255080;28;20075;-71
2023/12/05 07:16:45;;;;;;;30.05;11.27;;;;;;;-0.24;100.00;100047.63;6254598;28;20050;-69
2023/12/05 07:19:47;;;;;;;24.40;9.60;;;;;;;-0.26;100.00;100052.00;6266240;28;20132;-69
2023/12/05 07:22:48;;;;;;;30.00;11.55;;;;;;;-0.19;100.00;100058.72;6279131;28;20171;-69
2023/12/05 07:25:51;;;;;;;29.42;12.85;;;;;;;-0.19;100.00;100065.63;6279324;28;20045;-69
2023/12/05 07:28:52;;;;;;;32.42;12.63;;;;;;;-0.22;100.00;100066.53;6279423;28;20056;-69
2023/12/05 07:31:54;;;;;;;29.25;11.07;;;;;;;-0.11;100.00;100066.31;6278983;28;20331;-69
2023/12/05 07:34:56;;;;;;;28.70;11.98;;;;;;;-0.09;100.00;100061.94;6278943;28;20049;-69
2023/12/05 07:37:57;;;;;;;25.05;11.55;;;;;;;-0.06;100.00;100067.91;6279066;28;20049;-69
2023/12/05 07:40:59;;;;;;;32.15;11.27;;;;;;;-0.06;100.00;100064.47;6272980;28;20040;-69
2023/12/05 07:44:00;;;;;;;36.78;12.18;;;;;;;0.07;100.00;100065.06;6278565;28;20049;-69
2023/12/05 07:47:03;;;;;;;28.02;10.40;;;;;;;0.02;100.00;100061.75;6278673;28;20049;-69
2023/12/05 07:50:06;;;;;;;32.08;10.88;;;;;;;-0.03;100.00;100065.28;6278464;28;20437;-69
2023/12/05 07:53:07;;;;;;;30.38;12.63;;;;;;;-0.02;100.00;100069.53;6278340;28;20399;-69
2023/12/05 07:56:09;;;;;;;26.90;11.32;;;;;;;-0.07;100.00;100065.38;6278562;28;20377;-69
2023/12/05 07:59:11;;;;;;;32.45;12.32;;;;;;;0.08;100.00;100075.38;6278873;28;20049;-69
2023/12/05 08:02:13;;;;;;;27.33;11.05;;;;;;;0.06;100.00;100074.56;6278283;28;20052;-69
2023/12/05 08:05:15;;;;;;;26.27;10.25;;;;;;;0.13;100.00;100078.69;6277831;28;20045;-69
2023/12/05 08:08:16;;;;;;;28.70;11.52;;;;;;;0.08;100.00;100079.69;6277881;28;20052;-69
2023/12/05 08:11:19;;;;;;;32.90;11.60;;;;;;;0.14;100.00;100075.25;6278098;28;20049;-69
2023/12/05 08:14:20;;;;;;;25.65;11.57;;;;;;;0.11;100.00;100088.22;6278069;28;20053;-69
2023/12/05 08:17:23;;;;;;;26.58;11.13;;;;;;;0.02;100.00;100085.84;6277236;28;20473;-69
2023/12/05 08:20:24;;;;;;;27.45;11.75;;;;;;;0.11;100.00;100092.53;6278134;28;20046;-69
2023/12/05 08:23:25;;;;;;;26.27;10.57;;;;;;;0.09;100.00;100086.53;6277625;28;20056;-69
2023/12/05 08:26:27;;;;;;;26.30;10.45;;;;;;;0.11;100.00;100092.53;6278305;28;20053;-69
2023/12/05 08:29:28;;;;;;;30.05;11.52;;;;;;;-0.04;100.00;100089.41;6278025;28;20073;-69
2023/12/05 08:32:30;;;;;;;26.67;10.65;;;;;;;0.13;100.00;100101.09;6277933;28;20045;-70
2023/12/05 08:35:32;;;;;;;29.02;12.55;;;;;;;0.15;100.00;100095.03;6277647;28;20075;-69
2023/12/05 08:38:33;;;;;;;33.10;12.10;;;;;;;0.21;100.00;100099.22;6277675;28;20551;-69
2023/12/05 08:41:36;;;;;;;26.50;12.50;;;;;;;0.21;100.00;100104.38;6277509;28;20049;-69
2023/12/05 08:44:37;;;;;;;28.00;10.82;;;;;;;0.19;100.00;100099.25;6277716;28;20053;-69
2023/12/05 08:47:40;;;;;;;31.20;11.95;;;;;;;0.23;100.00;100097.47;6277682;28;20060;-69
2023/12/05 08:50:42;;;;;;;31.73;12.30;;;;;;;0.23;100.00;100102.63;6277319;28;20438;-69
2023/12/05 08:53:43;;;;;;;29.10;10.73;;;;;;;0.28;100.00;100099.94;6277183;28;20349;-69
2023/12/05 08:56:44;;;;;;;28.17;11.27;;;;;;;0.30;100.00;100100.75;6277431;28;20045;-71
2023/12/05 08:59:46;;;;;;;32.47;12.85;;;;;;;0.23;100.00;100095.72;6277317;28;20049;-69
2023/12/05 09:02:49;;;;;;;34.22;12.45;;;;;;;0.24;100.00;100097.41;6277024;28;20055;-69
2023/12/05 09:05:50;;;;;;;36.05;13.55;;;;;;;0.28;100.00;100103.38;6277045;28;20083;-69
2023/12/05 09:08:51;;;;;;;29.35;11.75;;;;;;;0.30;100.00;100098.16;6276858;28;20068;-69
2023/12/05 09:11:53;;;;;;;28.77;12.52;;;;;;;0.37;100.00;100112.66;6276890;28;20041;-69
2023/12/05 09:14:54;;;;;;;34.20;12.63;;;;;;;0.36;100.00;100103.19;6276373;28;20056;-70
2023/12/05 09:17:57;;;;;;;31.52;11.50;;;;;;;0.30;100.00;100109.34;6276841;28;20369;-69
2023/12/05 09:20:58;;;;;;;29.55;12.57;;;;;;;0.34;100.00;100110.97;6276693;28;20453;-69
2023/12/05 09:23:59;;;;;;;30.50;10.88;;;;;;;0.29;100.00;100107.66;6276699;28;20055;-69
2023/12/05 09:27:01;;;;;;;23.65;11.75;;;;;;;0.32;100.00;100115.34;6276411;28;20334;-68
2023/12/05 09:30:02;;;;;;;35.70;14.40;;;;;;;0.31;100.00;100113.63;6276509;28;20060;-68
2023/12/05 09:33:05;;;;;;;26.02;11.57;;;;;;;0.34;100.00;100117.88;6276378;28;20052;-68
2023/12/05 09:36:08;;;;;;;38.80;14.93;;;;;;;0.33;100.00;100123.94;6276057;28;20051;-70
2023/12/05 09:39:10;;;;;;;29.73;11.10;;;;;;;0.37;100.00;100123.00;6276480;28;20052;-70
2023/12/05 09:42:14;;;;;;;29.67;11.35;;;;;;;0.36;100.00;100119.53;6275994;28;20053;-70
2023/12/05 09:45:16;;;;;;;26.35;11.38;;;;;;;0.38;100.00;100119.53;6276232;28;20076;-70
2023/12/05 09:48:23;;;;;;;34.63;12.93;;;;;;;0.39;100.00;100113.47;6276333;28;20049;-70
2023/12/05 09:51:24;;;;;;;32.53;13.23;;;;;;;0.43;100.00;100109.94;6276000;28;20349;-70
2023/12/05 09:54:26;;;;;;;30.20;12.30;;;;;;;0.40;100.00;100110.84;6275829;28;20049;-70
2023/12/05 09:57:28;;;;;;;36.80;13.05;;;;;;;0.40;100.00;100108.25;6276092;28;20186;-70
2023/12/05 10:00:30;;;;;;;33.20;12.63;;;;;;;0.41;100.00;100109.97;6275960;28;20056;-70
2023/12/05 10:03:35;;;;;;;29.05;11.68;;;;;;;0.40;100.00;100113.41;6275465;28;20072;-70
2023/12/05 10:06:37;;;;;;;30.70;12.98;;;;;;;0.53;100.00;100110.56;6275445;28;20402;-69
2023/12/05 10:09:40;;;;;;;29.45;11.50;;;;;;;0.44;100.00;100106.47;6275543;28;20045;-69
2023/12/05 10:12:43;;;;;;;36.13;11.13;;;;;;;0.44;100.00;100109.88;6274906;28;20055;-70
2023/12/05 10:15:45;;;;;;;25.95;9.95;;;;;;;0.48;100.00;100111.53;6272274;28;20053;-69
2023/12/05 10:18:48;;;;;;;29.55;12.07;;;;;;;0.57;100.00;100104.47;6275324;28;20056;-71
2023/12/05 10:21:50;;;;;;;21.85;11.10;;;;;;;0.45;100.00;100102.97;6274663;28;20049;-70
2023/12/05 10:24:51;;;;;;;27.08;11.65;;;;;;;0.56;100.00;100102.75;6272426;28;20049;-70
2023/12/05 10:28:03;;;;;;;30.40;12.32;;;;;;;0.63;100.00;100104.31;6265147;28;20057;-68
2023/12/05 10:31:14;;;;;;;29.60;12.32;;;;;;;0.68;100.00;100098.16;6270061;28;20349;-72
2023/12/05 10:34:17;;;;;;;34.10;13.77;;;;;;;0.68;100.00;100103.34;6267932;28;20055;-71
2023/12/05 10:37:21;;;;;;;28.10;11.73;;;;;;;0.75;100.00;100102.28;6272432;28;20056;-71
2023/12/05 10:40:22;;;;;;;32.08;11.82;;;;;;;0.77;100.00;100097.06;6272894;28;20056;-70
2023/12/05 10:43:26;;;;;;;31.20;12.45;;;;;;;0.83;100.00;100102.13;6273386;28;20041;-70
2023/12/05 10:46:28;;;;;;;28.88;13.30;;;;;;;0.84;100.00;100095.19;6304181;22;20049;-72
2023/12/05 10:49:30;;;;;;;30.95;11.65;;;;;;;0.79;100.00;100095.31;6317430;28;20044;-72
2023/12/05 10:52:34;;;;;;;39.95;12.73;;;;;;;0.78;100.00;100096.22;6316385;28;20048;-73
2023/12/05 10:55:36;;;;;;;27.50;11.82;;;;;;;0.76;100.00;100085.03;6324517;28;20185;-72
2023/12/05 10:58:39;;;;;;;38.40;12.32;;;;;;;0.92;100.00;100094.13;6317890;28;20368;-72
2023/12/05 11:01:40;;;;;;;27.65;11.85;;;;;;;0.94;100.00;100087.16;6305848;28;20371;-73
2023/12/05 11:04:43;;;;;;;32.20;12.95;;;;;;;0.94;100.00;100092.34;6303777;28;20059;-72
2023/12/05 11:07:45;;;;;;;30.25;11.60;;;;;;;1.00;100.00;100096.53;6316720;28;20048;-72
2023/12/05 11:10:48;;;;;;;31.67;12.10;;;;;;;1.02;100.00;100087.84;6316150;28;20059;-72
2023/12/05 11:13:49;;;;;;;32.25;14.25;;;;;;;0.99;100.00;100090.50;6316383;28;20405;-72
2023/12/05 11:16:53;;;;;;;28.15;11.30;;;;;;;1.01;100.00;100088.72;6324476;28;20052;-72
2023/12/05 11:20:11;;;;;;;29.20;12.60;;;;;;;1.04;100.00;100094.72;6324417;28;20057;-72
2023/12/05 11:23:26;;;;;;;31.33;11.88;;;;;;;0.97;100.00;100089.69;6314271;28;20041;-72
2023/12/05 11:26:44;;;;;;;33.92;12.48;;;;;;;0.97;100.00;100089.69;6316197;28;20181;-73
2023/12/05 11:30:00;;;;;;;32.33;11.38;;;;;;;0.91;100.00;100092.44;6319585;28;20056;-74
2023/12/05 11:33:12;;;;;;;23.80;10.68;;;;;;;0.94;100.00;100104.44;6315305;28;20055;-75
2023/12/05 11:36:29;;;;;;;31.08;10.55;;;;;;;0.86;100.00;100091.69;6323738;28;20368;-75
2023/12/05 11:39:30;;;;;;;29.80;12.07;;;;;;;0.82;100.00;100084.91;6323947;28;20058;-74
2023/12/05 11:42:34;;;;;;;27.70;12.00;;;;;;;0.89;100.00;100086.44;6324147;28;20352;-74
2023/12/05 11:45:39;;;;;;;32.70;12.40;;;;;;;0.96;100.00;100081.97;6323692;28;20352;-74
2023/12/05 11:48:40;;;;;;;32.78;12.60;;;;;;;0.96;100.00;100090.59;6320638;28;20047;-74
2023/12/05 11:51:53;;;;;;;29.33;11.30;;;;;;;0.97;100.00;100084.53;6321002;28;20052;-74
2023/12/05 11:54:54;;;;;;;27.48;10.02;;;;;;;0.96;100.00;100087.16;6328318;28;20451;-73
2023/12/05 11:57:55;;;;;;;26.35;11.40;;;;;;;0.89;100.00;100086.44;6320770;28;20174;-72
2023/12/05 12:01:06;;;;;;;32.67;11.82;;;;;;;0.92;100.00;100094.13;6313544;28;20261;-73
2023/12/05 12:04:18;;;;;;;33.38;12.88;;;;;;;0.95;100.00;100090.59;6315970;28;20059;-73
2023/12/05 12:07:21;;;;;;;33.03;13.52;;;;;;;1.00;100.00;100094.81;6319637;28;20048;-73
2023/12/05 12:10:23;;;;;;;26.20;11.18;;;;;;;0.95;100.00;100093.19;6316020;28;20040;-73
2023/12/05 12:13:24;;;;;;;35.90;12.13;;;;;;;1.04;100.00;100090.38;6323058;28;20127;-72
2023/12/05 12:16:26;;;;;;;26.70;12.05;;;;;;;1.07;100.00;100086.88;6321908;28;20364;-72
2023/12/05 12:19:28;;;;;;;27.70;11.63;;;;;;;1.13;100.00;100097.06;6315653;28;20368;-73
2023/12/05 12:22:31;;;;;;;26.17;11.75;;;;;;;1.16;100.00;100095.25;6302701;28;20345;-73
2023/12/05 12:25:32;;;;;;;27.70;10.68;;;;;;;1.10;100.00;100098.00;6302444;28;20461;-72
2023/12/05 12:28:33;;;;;;;32.25;11.98;;;;;;;1.10;100.00;100097.16;6302934;28;20053;-72
2023/12/05 12:31:35;;;;;;;34.35;14.02;;;;;;;1.14;100.00;100099.63;6319458;28;20040;-72
2023/12/05 12:34:37;;;;;;;34.83;13.93;;;;;;;1.10;100.00;100095.41;6319343;28;20051;-74
2023/12/05 12:37:42;;;;;;;35.03;12.05;;;;;;;1.13;100.00;100097.06;6317201;28;20479;-73
2023/12/05 12:40:43;;;;;;;46.08;18.45;;;;;;;1.13;100.00;100102.25;6316507;28;20049;-73
2023/12/05 12:43:45;;;;;;;44.65;17.38;;;;;;;1.14;100.00;100099.63;6303274;28;20052;-73
2023/12/05 12:46:46;;;;;;;42.85;16.40;;;;;;;1.23;100.00;100096.81;6302085;28;20333;-74
2023/12/05 12:49:47;;;;;;;39.38;14.32;;;;;;;1.18;100.00;100103.84;6302300;28;20049;-74
2023/12/05 12:52:53;;;;;;;38.50;14.43;;;;;;;1.20;100.00;100101.22;6301833;28;20056;-73
2023/12/05 12:55:54;;;;;;;44.50;15.10;;;;;;;1.20;100.00;100103.78;6321251;28;20084;-73
2023/12/05 12:58:59;;;;;;;39.75;14.13;;;;;;;1.23;100.00;100111.50;6319176;28;20044;-73
2023/12/05 13:02:01;;;;;;;37.38;13.15;;;;;;;1.24;100.00;100103.69;6315616;28;20055;-75
2023/12/05 13:05:04;;;;;;;34.38;12.48;;;;;;;1.27;100.00;100106.19;6303457;28;20502;-74
2023/12/05 13:08:08;;;;;;;34.20;13.73;;;;;;;1.27;100.00;100106.19;6301804;28;20055;-74
2023/12/05 13:11:09;;;;;;;30.50;12.75;;;;;;;1.27;100.00;100102.72;6301508;28;20048;-74
2023/12/05 13:14:13;;;;;;;35.88;14.15;;;;;;;1.29;100.00;100102.72;6301784;28;20059;-75
2023/12/05 13:17:14;;;;;;;34.03;12.07;;;;;;;1.25;100.00;100096.75;6301430;28;20059;-72
2023/12/05 13:20:15;;;;;;;37.90;15.77;;;;;;;1.27;100.00;100100.16;6303823;28;20641;-74
2023/12/05 13:23:18;;;;;;;38.22;12.75;;;;;;;1.40;100.00;100098.09;6316581;28;20348;-74
2023/12/05 13:26:20;;;;;;;25.55;10.60;;;;;;;1.39;100.00;100099.84;6317843;28;20053;-74
2023/12/05 13:29:21;;;;;;;24.40;10.40;;;;;;;1.39;100.00;100105.00;6301596;28;20052;-74
2023/12/05 13:32:22;;;;;;;28.75;11.13;;;;;;;1.39;100.00;100102.44;6319105;28;20040;-73
2023/12/05 13:35:24;;;;;;;29.42;11.60;;;;;;;1.43;100.00;100104.06;6321766;28;20066;-73
2023/12/05 13:38:27;;;;;;;27.85;11.52;;;;;;;1.45;100.00;100102.28;6321738;28;20052;-74
2023/12/05 13:41:28;;;;;;;28.15;12.35;;;;;;;1.46;100.00;100110.91;6319206;28;20180;-74
2023/12/05 13:44:29;;;;;;;30.27;11.82;;;;;;;1.47;100.00;100107.41;6325968;28;20048;-74
2023/12/05 13:47:31;;;;;;;26.65;11.52;;;;;;;1.49;100.00;100109.06;6326002;28;20051;-74